Time,TemperatureF,DewpointF,PressureIn,WindDirection,WindDirectionDegrees,WindSpeedMPH,WindSpeedGustMPH,Humidity,HourlyPrecipIn,Conditions,Clouds,dailyrainin,SoftwareType,DateUTC
2013-07-25 00:01:00,58.0,40.0,30.17,NNE,16,0.0,-999.0,51,-99.99,,,-99.99,,2013-07-25 06:01:00,
2013-07-25 00:11:00,57.0,40.0,30.17,NNE,16,0.0,-999.0,52,-99.99,,,-99.99,,2013-07-25 06:11:00,
2013-07-25 00:32:00,55.0,39.0,30.17,NNE,16,1.0,-999.0,55,-99.99,,,-99.99,,2013-07-25 06:32:00,
2013-07-25 00:42:00,55.0,40.0,30.17,NNW,348,0.0,-999.0,57,-99.99,,,-99.99,,2013-07-25 06:42:00,
2013-07-25 00:52:00,55.0,40.0,30.18,NNW,348,0.0,-999.0,56,-99.99,,,-99.99,,2013-07-25 06:52:00,
2013-07-25 01:32:00,53.0,39.0,30.18,NNE,13,1.0,-999.0,59,-99.99,,,-99.99,,2013-07-25 07:32:00,
2013-07-25 01:43:00,52.0,39.0,30.18,NNE,13,1.0,-999.0,61,-99.99,,,-99.99,,2013-07-25 07:43:00,
2013-07-25 01:53:00,51.0,38.0,30.19,NNE,13,0.0,-999.0,62,-99.99,,,-99.99,,2013-07-25 07:53:00,
2013-07-25 02:02:00,51.0,39.0,30.19,NNE,13,0.0,-999.0,63,-99.99,,,-99.99,,2013-07-25 08:02:00,
2013-07-25 02:11:00,50.0,38.0,30.19,NNE,13,0.0,-999.0,64,-99.99,,,-99.99,,2013-07-25 08:11:00,
2013-07-25 02:32:00,48.0,37.0,30.19,NNE,13,1.0,-999.0,65,-99.99,,,-99.99,,2013-07-25 08:32:00,
2013-07-25 02:44:00,47.0,37.0,30.19,NNE,13,1.0,-999.0,68,-99.99,,,-99.99,,2013-07-25 08:44:00,
2013-07-25 03:32:00,46.0,37.0,30.20,NNE,13,0.0,-999.0,71,-99.99,,,-99.99,,2013-07-25 09:32:00,
2013-07-25 03:43:00,47.0,38.0,30.20,North,10,0.0,-999.0,70,-99.99,,,-99.99,,2013-07-25 09:43:00,
2013-07-25 03:52:00,48.0,39.0,30.20,North,10,0.0,-999.0,70,-99.99,,,-99.99,,2013-07-25 09:52:00,
2013-07-25 04:01:00,45.0,36.0,30.21,North,10,1.0,-999.0,70,-99.99,,,-99.99,,2013-07-25 10:01:00,
2013-07-25 04:11:00,44.0,36.0,30.21,NNE,16,1.0,-999.0,73,-99.99,,,-99.99,,2013-07-25 10:11:00,
2013-07-25 04:53:00,49.0,38.0,30.22,NNW,334,3.0,-999.0,66,-99.99,,,-99.99,,2013-07-25 10:53:00,
2013-07-25 05:02:00,50.0,38.0,30.22,NNW,338,3.0,-999.0,63,-99.99,,,-99.99,,2013-07-25 11:02:00,
2013-07-25 05:32:00,46.0,37.0,30.23,NE,40,2.0,-999.0,71,-99.99,,,-99.99,,2013-07-25 11:32:00,
2013-07-25 05:43:00,45.0,37.0,30.24,NNE,18,0.0,-999.0,73,-99.99,,,-99.99,,2013-07-25 11:43:00,
2013-07-25 06:02:00,45.0,38.0,30.25,North,5,1.0,-999.0,75,-99.99,,,-99.99,,2013-07-25 12:02:00,
2013-07-25 06:32:00,48.0,38.0,30.25,NNE,26,0.0,-999.0,68,-99.99,,,-99.99,,2013-07-25 12:32:00,
2013-07-25 06:44:00,47.0,38.0,30.26,NE,47,1.0,-999.0,71,-99.99,,,-99.99,,2013-07-25 12:44:00,
2013-07-25 06:52:00,47.0,38.0,30.26,NE,47,0.0,-999.0,71,-99.99,,,-99.99,,2013-07-25 12:52:00,
2013-07-25 07:02:00,48.0,38.0,30.26,NE,47,0.0,-999.0,69,-99.99,,,-99.99,,2013-07-25 13:02:00,
2013-07-25 08:33:00,57.0,36.0,30.27,NNE,19,4.0,-999.0,46,-99.99,,,-99.99,,2013-07-25 14:33:00,
2013-07-25 08:43:00,58.0,37.0,30.27,North,5,5.0,-999.0,46,-99.99,,,-99.99,,2013-07-25 14:43:00,
2013-07-25 09:43:00,61.0,41.0,30.28,NNW,342,3.0,-999.0,47,-99.99,,,-99.99,,2013-07-25 15:43:00,
2013-07-25 09:52:00,61.0,40.0,30.28,NNW,332,3.0,-999.0,46,-99.99,,,-99.99,,2013-07-25 15:52:00,
2013-07-25 10:32:00,66.0,40.0,30.29,NW,319,1.0,-999.0,39,-99.99,,,-99.99,,2013-07-25 16:32:00,
2013-07-25 11:02:00,66.0,42.0,30.29,NW,307,0.0,-999.0,42,-99.99,,,-99.99,,2013-07-25 17:02:00,
2013-07-25 11:43:00,70.0,46.0,30.28,SW,224,2.0,-999.0,43,-99.99,,,-99.99,,2013-07-25 17:43:00,
2013-07-25 11:53:00,71.0,47.0,30.28,SW,228,2.0,-999.0,42,-99.99,,,-99.99,,2013-07-25 17:53:00,
2013-07-25 12:01:00,72.0,46.0,30.27,SW,229,2.0,-999.0,40,-99.99,,,-99.99,,2013-07-25 18:01:00,
2013-07-25 12:33:00,74.0,43.0,30.27,West,265,2.0,-999.0,33,-99.99,,,-99.99,,2013-07-25 18:33:00,
2013-07-25 12:42:00,74.0,45.0,30.27,WSW,242,3.0,-999.0,35,-99.99,,,-99.99,,2013-07-25 18:42:00,
2013-07-25 12:52:00,74.0,43.0,30.26,WSW,250,3.0,-999.0,33,-99.99,,,-99.99,,2013-07-25 18:52:00,
2013-07-25 13:01:00,77.0,39.0,30.26,SW,214,1.0,-999.0,26,-99.99,,,-99.99,,2013-07-25 19:01:00,
2013-07-25 13:42:00,82.0,42.0,30.24,WSW,237,3.0,-999.0,24,-99.99,,,-99.99,,2013-07-25 19:42:00,
2013-07-25 14:32:00,84.0,41.0,30.23,West,263,4.0,-999.0,22,-99.99,,,-99.99,,2013-07-25 20:32:00,
2013-07-25 14:43:00,84.0,42.0,30.23,WSW,244,3.0,-999.0,23,-99.99,,,-99.99,,2013-07-25 20:43:00,
2013-07-25 15:32:00,86.0,33.0,30.22,SSW,204,7.0,-999.0,15,-99.99,,,-99.99,,2013-07-25 21:32:00,
2013-07-25 15:52:00,86.0,33.0,30.22,WSW,250,8.0,-999.0,15,-99.99,,,-99.99,,2013-07-25 21:52:00,
2013-07-25 16:22:00,85.0,29.0,30.23,WSW,244,10.0,-999.0,13,-99.99,,,-99.99,,2013-07-25 22:22:00,
2013-07-25 16:32:00,85.0,29.0,30.23,WSW,244,10.0,-999.0,13,-99.99,,,-99.99,,2013-07-25 22:32:00,
2013-07-25 16:42:00,85.0,29.0,30.23,WSW,244,10.0,-999.0,13,-99.99,,,-99.99,,2013-07-25 22:42:00,